Time;durP1;ratioP1;P1;durP2;ratioP2;P2;SDS_P1;SDS_P2;PMS_P1;PMS_P2;Temp;Humidity;BMP_temperature;BMP_pressure;BME280_temperature;BME280_humidity;BME280_pressure;Samples;Min_cycle;Max_cycle;Signal;HPM_P1;HPM_P2
2022/01/22 00:00:15;;;;;;;2.05;1.05;;;;;;;17.57;43.55;103159.16;5022582;28;20038;-48
2022/01/22 00:02:40;;;;;;;0.68;0.68;;;;;;;17.57;43.51;103165.41;5024545;28;20040;-48
2022/01/22 00:05:08;;;;;;;1.73;1.00;;;;;;;17.56;43.37;103163.69;5024010;28;20096;-49
2022/01/22 00:07:33;;;;;;;1.15;0.77;;;;;;;17.55;43.39;103161.97;5023995;28;20033;-45
2022/01/22 00:10:03;;;;;;;1.10;1.00;;;;;;;17.54;43.55;103157.53;5023086;28;20060;-46
2022/01/22 00:14:58;;;;;;;1.13;0.68;;;;;;;17.41;43.50;103137.84;5023963;28;20030;-46
2022/01/22 00:17:24;;;;;;;1.17;0.90;;;;;;;17.52;43.40;103151.41;5024214;28;20060;-45
2022/01/22 00:19:49;;;;;;;1.30;0.80;;;;;;;17.51;43.51;103152.41;5027537;28;20022;-49
2022/01/22 00:22:15;;;;;;;1.02;0.90;;;;;;;17.51;43.45;103154.22;5022513;28;20145;-46
2022/01/22 00:24:40;;;;;;;1.38;0.80;;;;;;;17.50;43.51;103150.69;5022915;28;20044;-45
2022/01/22 00:27:06;;;;;;;1.10;0.95;;;;;;;17.49;43.61;103147.09;5018605;28;20022;-46
2022/01/22 00:29:31;;;;;;;0.85;0.80;;;;;;;17.50;43.61;103139.91;5023685;28;20033;-49
2022/01/22 00:31:56;;;;;;;1.48;0.98;;;;;;;17.48;43.42;103142.69;5023964;28;20038;-49
2022/01/22 00:34:22;;;;;;;1.52;1.00;;;;;;;17.46;43.50;103139.25;5023258;28;20045;-48
2022/01/22 00:36:47;;;;;;;1.45;0.90;;;;;;;17.45;43.47;103134.81;5023508;28;20021;-48
2022/01/22 00:39:12;;;;;;;1.60;1.00;;;;;;;17.44;43.56;103138.50;5023322;28;20049;-48
2022/01/22 00:41:37;;;;;;;1.60;0.80;;;;;;;17.46;43.47;103133.03;5039264;28;20041;-47
2022/01/22 00:44:03;;;;;;;1.58;0.98;;;;;;;17.45;43.42;103131.28;5043387;28;20033;-49
2022/01/22 00:46:28;;;;;;;0.88;0.70;;;;;;;17.45;43.55;103133.97;5043624;28;20108;-50
2022/01/22 00:48:53;;;;;;;1.30;0.90;;;;;;;17.43;43.64;103128.72;5043522;28;20056;-46
2022/01/22 00:51:19;;;;;;;1.20;0.90;;;;;;;17.39;43.47;103126.34;5043009;28;20034;-48
2022/01/22 00:53:44;;;;;;;1.25;0.80;;;;;;;17.42;43.49;103132.38;5043119;28;20049;-47
2022/01/22 00:56:10;;;;;;;1.10;0.70;;;;;;;17.42;43.57;103137.75;5042605;28;20033;-48
2022/01/22 00:58:35;;;;;;;0.80;0.80;;;;;;;17.41;43.59;103135.16;5043182;28;20060;-48
2022/01/22 01:01:00;;;;;;;1.70;1.17;;;;;;;17.38;43.68;103128.16;5043097;28;20041;-45
2022/01/22 01:03:30;;;;;;;1.30;0.95;;;;;;;17.40;43.38;103142.34;5036868;28;20040;-47
2022/01/22 01:05:55;;;;;;;1.42;1.10;;;;;;;17.40;43.08;103149.56;5022509;28;20066;-46
2022/01/22 01:08:21;;;;;;;1.42;0.82;;;;;;;17.37;43.43;103147.06;5022925;28;20087;-46
2022/01/22 01:10:48;;;;;;;2.28;1.05;;;;;;;17.37;43.41;103147.94;5024999;28;20046;-45
2022/01/22 01:13:14;;;;;;;1.20;0.70;;;;;;;17.38;43.50;103149.69;5028244;28;20490;-45
2022/01/22 01:15:56;;;;;;;0.80;0.80;;;;;;;17.35;43.40;103141.81;5043195;28;20044;-49
2022/01/22 01:32:17;;;;;;;0.98;0.88;;;;;;;17.32;43.62;103146.53;5047002;28;20029;-49
2022/01/22 01:34:44;;;;;;;1.42;0.90;;;;;;;17.31;43.54;103142.97;5045673;28;20387;-46
2022/01/22 01:37:13;;;;;;;1.10;0.80;;;;;;;17.31;43.45;103142.97;5046710;28;20486;-49
2022/01/22 01:39:39;;;;;;;2.08;0.98;;;;;;;17.31;43.50;103148.38;5038178;28;20025;-47
2022/01/22 01:42:09;;;;;;;1.17;0.77;;;;;;;17.30;43.76;103140.41;5030557;28;20034;-46
2022/01/22 01:44:34;;;;;;;0.98;0.70;;;;;;;17.27;43.67;103137.91;5046360;28;20029;-47
2022/01/22 01:47:02;;;;;;;1.15;0.80;;;;;;;17.30;43.47;103140.41;5046761;28;20578;-48
2022/01/22 01:49:29;;;;;;;1.00;0.90;;;;;;;17.30;43.62;103151.16;5046364;28;20026;-46
2022/01/22 01:51:57;;;;;;;1.10;0.70;;;;;;;17.29;43.57;103144.03;5046621;28;20025;-45
2022/01/22 01:59:33;;;;;;;1.70;1.00;;;;;;;17.26;43.66;103153.19;5030924;28;20032;-48
2022/01/22 02:01:58;;;;;;;1.10;0.80;;;;;;;17.27;43.60;103157.59;5046263;28;20076;-51
2022/01/22 02:04:24;;;;;;;1.58;0.80;;;;;;;17.26;43.67;103150.50;5042890;28;20137;-49
2022/01/22 02:06:49;;;;;;;2.25;0.90;;;;;;;17.24;43.53;103147.91;5026300;28;20040;-46
2022/01/22 02:09:14;;;;;;;1.48;0.88;;;;;;;17.24;43.47;103147.91;5026192;28;20034;-49
2022/01/22 02:11:41;;;;;;;1.95;1.00;;;;;;;17.23;43.65;103146.19;5036451;28;20108;-46
2022/01/22 02:24:59;;;;;;;1.38;0.90;;;;;;;17.21;43.58;103163.41;5025380;28;20052;-46
2022/01/22 02:27:24;;;;;;;0.88;0.80;;;;;;;17.20;43.50;103150.91;5040842;28;20055;-49
2022/01/22 02:29:50;;;;;;;0.98;0.85;;;;;;;17.18;43.56;103151.00;5045430;28;20033;-47
2022/01/22 02:33:00;;;;;;;1.33;1.00;;;;;;;17.21;43.45;103155.34;5045868;28;20042;-45
2022/01/22 02:35:31;;;;;;;0.98;0.88;;;;;;;17.17;43.64;103146.63;5044836;28;20053;-48
2022/01/22 02:38:02;;;;;;;0.82;0.80;;;;;;;17.18;43.57;103150.16;5045271;28;20058;-47
2022/01/22 02:40:32;;;;;;;1.48;0.90;;;;;;;17.16;43.66;103147.59;5043498;28;20111;-51
2022/01/22 02:42:59;;;;;;;1.17;0.90;;;;;;;17.16;43.50;103141.31;5025578;28;20045;-48
2022/01/22 02:45:25;;;;;;;1.73;1.35;;;;;;;17.15;43.66;103140.47;5025688;28;20128;-51
2022/01/22 02:47:51;;;;;;;1.25;0.90;;;;;;;17.16;43.65;103144.00;5025743;28;20037;-51
2022/01/22 02:50:17;;;;;;;0.98;0.93;;;;;;;17.15;43.67;103142.28;5007749;28;20025;-50
2022/01/22 02:52:43;;;;;;;1.08;0.98;;;;;;;17.15;43.71;103145.84;5025776;28;20030;-50
2022/01/22 02:55:11;;;;;;;0.98;0.70;;;;;;;17.15;43.58;103150.34;5024633;28;20116;-50
2022/01/22 02:57:36;;;;;;;1.05;0.70;;;;;;;17.14;43.73;103156.69;5025853;28;20022;-45
2022/01/22 03:00:04;;;;;;;1.10;0.88;;;;;;;17.14;43.55;103164.75;5025063;28;20545;-46
2022/01/22 03:02:30;;;;;;;1.85;1.45;;;;;;;17.12;43.58;103159.50;5024901;28;20033;-46
2022/01/22 03:04:55;;;;;;;1.10;0.93;;;;;;;17.13;43.60;103163.03;5024847;28;20021;-47
2022/01/22 03:07:20;;;;;;;1.33;0.80;;;;;;;17.14;43.52;103164.75;5024426;28;20037;-49
2022/01/22 03:09:48;;;;;;;0.98;0.80;;;;;;;17.13;43.56;103166.59;5024568;28;20025;-47
2022/01/22 03:13:10;;;;;;;1.75;1.00;;;;;;;17.14;43.84;103167.44;5024856;28;20026;-46
2022/01/22 03:15:31;;;;;;;0.68;0.68;;;;;;;17.12;43.53;103162.19;5021653;28;20036;-46
2022/01/22 03:27:56;;;;;;;1.10;0.80;;;;;;;17.09;43.51;103167.75;5025085;28;20085;-49
2022/01/22 03:30:21;;;;;;;2.15;1.20;;;;;;;17.09;43.55;103162.38;5025156;28;20022;-46
2022/01/22 03:32:50;;;;;;;1.15;0.75;;;;;;;17.08;43.64;103159.81;5024426;28;20049;-47
2022/01/22 03:37:46;;;;;;;0.90;0.80;;;;;;;17.07;43.61;103172.34;5024778;28;19913;-47
2022/01/22 03:40:13;;;;;;;1.98;1.05;;;;;;;17.08;43.44;103170.56;5028070;28;20095;-49
2022/01/22 03:42:40;;;;;;;0.70;0.70;;;;;;;17.07;43.63;103175.03;5039471;28;20138;-48
2022/01/22 03:45:08;;;;;;;1.33;1.10;;;;;;;17.07;43.55;103168.81;5044152;28;20060;-48
2022/01/22 03:47:34;;;;;;;1.05;0.80;;;;;;;17.06;43.57;103172.47;5044623;28;20025;-49
2022/01/22 03:49:59;;;;;;;1.17;0.77;;;;;;;17.06;43.56;103167.94;5043900;28;20126;-45
2022/01/22 03:52:24;;;;;;;0.75;0.70;;;;;;;17.06;43.57;103173.34;5027003;28;20619;-48
2022/01/22 03:54:49;;;;;;;0.88;0.65;;;;;;;17.05;43.44;103174.31;5022849;28;20108;-48
2022/01/22 03:57:15;;;;;;;1.42;1.00;;;;;;;17.06;43.51;103159.88;5031030;28;20033;-46
2022/01/22 03:59:40;;;;;;;2.30;0.90;;;;;;;17.06;43.44;103172.47;5044425;28;20030;-49
2022/01/22 04:04:53;;;;;;;2.72;1.00;;;;;;;17.05;43.63;103165.38;5024410;28;20164;-49
2022/01/22 04:07:46;;;;;;;1.23;0.77;;;;;;;17.05;43.53;103165.38;5031087;28;20053;-48
2022/01/22 04:10:06;;;;;;;1.00;0.80;;;;;;;17.03;43.53;103170.84;5043223;28;20025;-48
2022/01/22 04:15:08;;;;;;;1.27;1.05;;;;;;;17.02;43.54;103177.19;5028872;28;20146;-47
2022/01/22 04:25:30;;;;;;;0.82;0.80;;;;;;;16.98;43.67;103176.50;5023343;28;20087;-48
2022/01/22 04:27:56;;;;;;;;;;;;;;;16.96;43.59;103175.78;5036292;28;20037;-47
2022/01/22 04:30:23;;;;;;;0.95;0.85;;;;;;;16.98;43.56;103181.03;5043764;28;19909;-45
2022/01/22 04:32:48;;;;;;;0.70;0.70;;;;;;;16.98;43.66;103179.19;5043450;28;20033;-50
2022/01/22 04:35:14;;;;;;;1.10;1.00;;;;;;;16.97;43.53;103180.16;5043578;28;20040;-48
2022/01/22 04:37:39;;;;;;;1.55;0.70;;;;;;;16.94;43.59;103176.81;5040597;28;20033;-45
2022/01/22 04:40:07;;;;;;;1.15;0.80;;;;;;;16.99;43.71;103190.81;5022779;28;20402;-48
2022/01/22 04:42:35;;;;;;;0.95;0.85;;;;;;;16.97;43.58;103188.25;5022289;28;20056;-46
2022/01/22 04:45:07;;;;;;;0.80;0.80;;;;;;;16.94;43.50;103174.13;5022372;28;20021;-48
2022/01/22 04:54:58;;;;;;;0.95;0.70;;;;;;;16.96;43.56;103178.47;5015360;28;20060;-46
2022/01/22 04:55:49;;;;;;;0.70;0.70;;;;;;;16.93;43.59;103170.59;5016486;28;20030;-49
2022/01/22 04:58:14;;;;;;;1.33;0.80;;;;;;;16.95;43.55;103179.44;5023819;28;20259;-45
2022/01/22 05:00:42;;;;;;;1.67;1.30;;;;;;;16.96;43.48;103182.97;5023350;28;20038;-45
2022/01/22 05:03:07;;;;;;;2.05;0.80;;;;;;;16.95;43.57;103182.13;5024399;28;20541;-45
2022/01/22 05:05:33;;;;;;;1.00;0.80;;;;;;;16.93;43.53;103175.97;5027407;28;20034;-49
2022/01/22 05:07:58;;;;;;;1.17;0.98;;;;;;;16.94;43.65;103183.06;5027652;28;20419;-47
2022/01/22 05:10:24;;;;;;;0.98;0.88;;;;;;;16.94;43.58;103180.38;5007629;28;20022;-50
2022/01/22 05:12:49;;;;;;;0.82;0.60;;;;;;;16.93;43.56;103170.59;5009067;28;20026;-47
2022/01/22 05:15:16;;;;;;;0.80;0.70;;;;;;;16.92;43.59;103174.25;5027898;28;20045;-46
2022/01/22 05:17:43;;;;;;;0.98;0.73;;;;;;;16.93;43.58;103164.34;5010597;28;20037;-46
2022/01/22 05:25:08;;;;;;;1.92;0.85;;;;;;;16.91;43.57;103174.34;5006947;28;20026;-49
2022/01/22 05:30:24;;;;;;;0.93;0.70;;;;;;;16.89;43.65;103185.19;5000032;28;20022;-47
2022/01/22 05:38:31;;;;;;;0.70;0.70;;;;;;;16.88;43.63;103174.56;4965217;29;20646;-49
2022/01/22 05:40:56;;;;;;;0.95;0.95;;;;;;;16.87;43.71;103179.06;4973538;28;20069;-51
2022/01/22 05:43:21;;;;;;;0.70;0.70;;;;;;;16.87;43.64;103170.16;4984615;28;20035;-45
2022/01/22 05:45:47;;;;;;;1.15;0.90;;;;;;;16.86;43.71;103171.09;4979141;28;20725;-48
2022/01/22 05:48:12;;;;;;;1.38;0.98;;;;;;;16.85;43.69;103170.22;4982076;28;20034;-44
2022/01/22 05:50:49;;;;;;;0.95;0.65;;;;;;;16.83;43.69;103171.31;4979212;28;20030;-46
2022/01/22 05:53:33;;;;;;;0.60;0.60;;;;;;;16.84;43.77;103176.56;4976864;28;20062;-45
2022/01/22 06:01:17;;;;;;;0.70;0.70;;;;;;;16.84;43.85;103191.84;4979251;28;20026;-47
2022/01/22 06:03:43;;;;;;;0.75;0.75;;;;;;;16.83;43.76;103193.66;4976925;28;20031;-46
2022/01/22 06:06:08;;;;;;;0.70;0.70;;;;;;;16.84;43.87;103195.38;4967929;28;20053;-47
2022/01/22 06:08:39;;;;;;;0.70;0.70;;;;;;;16.85;43.90;103190.84;4980677;28;20145;-48
2022/01/22 06:11:09;;;;;;;0.98;0.88;;;;;;;16.85;43.90;103197.09;4979532;28;20224;-48
2022/01/22 06:13:44;;;;;;;0.82;0.70;;;;;;;16.84;44.07;103192.69;5008757;28;20022;-46
2022/01/22 06:16:15;;;;;;;1.08;0.88;;;;;;;16.84;43.98;103198.06;5016281;28;20048;-47
2022/01/22 06:18:41;;;;;;;0.80;0.70;;;;;;;16.85;44.04;103194.41;5023352;28;20152;-46
2022/01/22 06:21:08;;;;;;;1.40;0.85;;;;;;;16.81;44.04;103192.88;5015284;28;20050;-47
2022/01/22 06:23:34;;;;;;;0.68;0.68;;;;;;;16.85;44.55;103198.91;5022183;28;20025;-52
2022/01/22 06:26:00;;;;;;;0.88;0.70;;;;;;;16.85;44.22;103209.66;5024124;28;20030;-48
2022/01/22 06:28:26;;;;;;;0.85;0.60;;;;;;;16.84;44.28;103202.56;5018500;28;20118;-50
2022/01/22 06:30:52;;;;;;;0.60;0.60;;;;;;;16.83;44.24;103196.34;5015564;28;20071;-48
2022/01/22 06:33:17;;;;;;;1.65;0.77;;;;;;;16.86;44.31;103201.50;5019820;28;20073;-47
2022/01/22 06:35:42;;;;;;;1.10;0.80;;;;;;;16.86;44.44;103203.31;5011252;28;20030;-49
2022/01/22 06:38:09;;;;;;;0.80;0.80;;;;;;;16.85;44.42;103204.28;5018189;28;20085;-49
2022/01/22 06:43:03;;;;;;;1.30;0.80;;;;;;;16.87;44.50;103210.44;5038755;28;20021;-45
2022/01/22 06:45:29;;;;;;;1.05;0.70;;;;;;;16.86;44.43;103217.63;5040005;28;20032;-46
2022/01/22 06:47:54;;;;;;;0.93;0.80;;;;;;;16.86;44.50;103225.69;5040069;28;20021;-48
2022/01/22 06:50:20;;;;;;;1.15;0.73;;;;;;;16.86;44.63;103231.06;5036049;28;20021;-48
2022/01/22 06:52:46;;;;;;;0.65;0.63;;;;;;;16.88;44.63;103236.34;5034951;28;20032;-48
2022/01/22 06:55:15;;;;;;;0.80;0.80;;;;;;;16.88;44.66;103241.72;5036827;28;20101;-49
2022/01/22 06:57:40;;;;;;;;;;;;;;;16.85;44.64;103242.78;5036991;28;20018;-46
2022/01/22 07:00:07;;;;;;;0.85;0.70;;;;;;;16.86;44.51;103241.81;5035247;28;19913;-50
2022/01/22 07:02:32;;;;;;;0.70;0.70;;;;;;;16.85;44.78;103241.91;5040968;28;20021;-50
2022/01/22 07:04:57;;;;;;;0.60;0.60;;;;;;;16.85;44.80;103241.91;5038986;28;20029;-48
2022/01/22 07:07:22;;;;;;;1.00;0.60;;;;;;;16.85;45.03;103234.72;5036534;28;20029;-51
2022/01/22 07:09:48;;;;;;;0.60;0.60;;;;;;;16.85;44.89;103244.59;5035884;28;20450;-51
2022/01/22 07:12:13;;;;;;;0.80;0.80;;;;;;;16.81;44.76;103232.31;5027960;28;20037;-47
2022/01/22 07:14:39;;;;;;;7.50;1.35;;;;;;;16.87;44.87;103243.56;5027685;28;20032;-46
2022/01/22 07:17:04;;;;;;;1.45;1.10;;;;;;;16.92;44.86;103254.00;5029847;28;20857;-48
2022/01/22 07:19:37;;;;;;;1.98;0.98;;;;;;;16.96;44.91;103250.16;5030342;28;20516;-44
2022/01/22 07:22:08;;;;;;;1.63;0.90;;;;;;;16.98;44.90;103243.69;5029087;28;20058;-45
2022/01/22 07:24:37;;;;;;;3.55;2.75;;;;;;;17.02;44.79;103255.13;5026683;28;20022;-45
2022/01/22 07:27:04;;;;;;;3.88;1.20;;;;;;;17.06;45.00;103245.03;5028978;28;20045;-46
2022/01/22 07:29:29;;;;;;;2.65;0.90;;;;;;;17.09;44.76;103244.84;5015463;28;20487;-48
2022/01/22 07:31:54;;;;;;;0.77;0.63;;;;;;;17.11;44.76;103245.59;5026749;28;20026;-51
2022/01/22 07:34:19;;;;;;;2.50;1.08;;;;;;;17.12;44.65;103241.94;5027812;28;20030;-50
2022/01/22 07:36:45;;;;;;;1.65;0.90;;;;;;;17.13;44.96;103241.00;5027019;28;20097;-47
2022/01/22 07:39:10;;;;;;;0.98;0.70;;;;;;;17.15;44.50;103234.53;5009246;28;20065;-46
2022/01/22 07:41:37;;;;;;;2.90;0.98;;;;;;;17.16;44.47;103247.03;5030044;28;20060;-44
2022/01/22 07:44:03;;;;;;;1.10;0.80;;;;;;;17.15;44.71;103239.06;5010996;28;20487;-43
2022/01/22 07:46:28;;;;;;;1.85;0.80;;;;;;;17.19;44.77;103249.50;5024646;28;20583;-45
2022/01/22 07:48:54;;;;;;;2.50;1.00;;;;;;;17.19;44.68;103243.28;5028778;28;20025;-50
2022/01/22 07:51:19;;;;;;;1.65;0.80;;;;;;;17.20;44.62;103250.38;5040093;28;20123;-51
2022/01/22 07:53:45;;;;;;;1.33;0.88;;;;;;;17.20;44.55;103239.63;5034936;28;20067;-51
2022/01/22 07:56:11;;;;;;;1.80;0.90;;;;;;;17.22;44.77;103243.94;5037464;28;20057;-50
2022/01/22 07:58:37;;;;;;;0.93;0.80;;;;;;;17.22;44.56;103240.41;5038345;28;20045;-49
2022/01/22 08:01:02;;;;;;;2.90;0.85;;;;;;;17.22;44.50;103237.72;5040881;28;20061;-49
2022/01/22 08:03:29;;;;;;;2.45;0.70;;;;;;;17.21;44.55;103247.59;5020665;28;20478;-50
2022/01/22 08:05:54;;;;;;;0.95;0.70;;;;;;;17.18;44.52;103241.56;5043637;28;20065;-51
2022/01/22 08:08:19;;;;;;;1.77;0.90;;;;;;;17.21;44.47;103250.28;5041098;28;20662;-48
2022/01/22 08:10:44;;;;;;;1.92;1.15;;;;;;;17.19;44.48;103249.50;5043286;28;20033;-51
2022/01/22 08:13:10;;;;;;;1.10;0.73;;;;;;;17.19;44.49;103246.81;5043970;28;20081;-49
2022/01/22 08:15:36;;;;;;;2.30;0.80;;;;;;;17.21;44.40;103258.34;5043489;28;20543;-52
2022/01/22 08:18:03;;;;;;;1.20;0.88;;;;;;;17.23;44.52;103263.63;5041257;28;20742;-45
2022/01/22 08:20:28;;;;;;;0.70;0.70;;;;;;;17.23;44.60;103259.09;5038188;28;20056;-49
2022/01/22 08:22:54;;;;;;;2.13;1.02;;;;;;;17.23;44.48;103259.09;5037991;28;20030;-51
2022/01/22 08:25:19;;;;;;;0.82;0.82;;;;;;;17.24;44.60;103263.50;5034221;28;20057;-49
2022/01/22 08:30:30;;;;;;;1.70;1.00;;;;;;;17.26;44.52;103284.94;5035552;28;20025;-50
2022/01/22 08:35:54;;;;;;;2.30;0.85;;;;;;;17.27;44.27;103273.22;5023800;28;20029;-48
2022/01/22 08:38:28;;;;;;;0.80;0.80;;;;;;;17.28;44.60;103277.63;5023812;28;20026;-49
2022/01/22 08:40:53;;;;;;;1.58;0.90;;;;;;;17.29;44.39;103283.84;5023022;28;20057;-49
2022/01/22 08:43:19;;;;;;;1.10;0.80;;;;;;;17.26;44.45;103274.19;5026220;28;20030;-47
2022/01/22 08:45:49;;;;;;;2.08;1.17;;;;;;;17.28;44.37;103276.75;5024168;28;20045;-50
2022/01/22 08:48:14;;;;;;;0.60;0.60;;;;;;;17.28;44.40;103285.69;5033625;28;20112;-49
2022/01/22 08:50:39;;;;;;;0.95;0.70;;;;;;;17.29;44.40;103281.16;5043393;28;20026;-51
2022/01/22 08:53:04;;;;;;;1.80;0.80;;;;;;;17.29;44.30;103291.91;5043483;28;20092;-51
2022/01/22 08:55:30;;;;;;;0.95;0.70;;;;;;;17.28;44.37;103285.69;5042790;28;20025;-51
2022/01/22 08:57:55;;;;;;;1.38;0.80;;;;;;;17.30;44.33;103288.28;5043504;28;20085;-49
2022/01/22 09:00:21;;;;;;;1.33;0.70;;;;;;;17.27;44.31;103281.28;5043480;28;20116;-51
2022/01/22 09:02:47;;;;;;;1.15;0.80;;;;;;;17.30;44.28;103283.78;5037631;28;20093;-53
2022/01/22 09:05:16;;;;;;;1.65;0.80;;;;;;;17.32;44.29;103283.66;5040242;28;20093;-51
2022/01/22 09:07:41;;;;;;;1.65;1.00;;;;;;;17.32;44.24;103284.53;5043368;28;20502;-53
2022/01/22 09:10:07;;;;;;;1.60;0.85;;;;;;;17.32;44.17;103289.03;5042426;28;20036;-51
2022/01/22 09:12:32;;;;;;;2.15;0.80;;;;;;;17.31;44.23;103298.06;5043406;28;20112;-50
2022/01/22 09:14:57;;;;;;;1.00;0.70;;;;;;;17.30;44.21;103299.06;5043142;28;20053;-53
2022/01/22 09:17:23;;;;;;;1.42;1.10;;;;;;;17.31;44.21;103288.19;5043258;28;20441;-52
2022/01/22 09:19:49;;;;;;;2.03;0.80;;;;;;;17.31;43.87;103290.88;5042786;28;20052;-51
2022/01/22 09:22:15;;;;;;;1.10;0.70;;;;;;;17.29;44.25;103286.53;5043292;28;20192;-51
2022/01/22 09:24:40;;;;;;;2.10;0.88;;;;;;;17.32;44.17;103287.22;5042525;28;20033;-52
2022/01/22 09:27:06;;;;;;;0.93;0.70;;;;;;;17.35;44.14;103294.22;5043182;28;20036;-49
2022/01/22 09:29:36;;;;;;;1.15;0.82;;;;;;;17.35;44.20;103304.97;5043298;28;20029;-49
2022/01/22 09:32:01;;;;;;;2.22;1.30;;;;;;;17.34;44.01;103300.56;5043135;28;20030;-50
2022/01/22 09:34:26;;;;;;;2.25;0.90;;;;;;;17.34;44.00;103309.50;5037764;28;20056;-51
2022/01/22 09:36:52;;;;;;;1.70;0.90;;;;;;;17.36;44.07;103318.31;5042995;28;20110;-50
2022/01/22 09:39:17;;;;;;;0.77;0.70;;;;;;;17.36;43.92;103318.31;5042915;28;20057;-49
2022/01/22 09:41:43;;;;;;;2.15;1.02;;;;;;;17.35;44.08;103327.34;5042538;28;20121;-50
2022/01/22 09:44:08;;;;;;;0.90;0.70;;;;;;;17.36;44.06;103329.06;5025192;28;20034;-52
2022/01/22 09:46:34;;;;;;;1.17;0.80;;;;;;;17.37;43.98;103327.25;5043241;28;20022;-51
2022/01/22 09:48:59;;;;;;;0.80;0.80;;;;;;;17.37;44.00;103332.63;5043492;28;20037;-53
2022/01/22 09:51:24;;;;;;;1.02;0.80;;;;;;;17.38;44.18;103337.06;5046658;28;20855;-51
2022/01/22 09:53:50;;;;;;;1.23;0.80;;;;;;;17.39;43.83;103339.63;5046617;28;20041;-51
2022/01/22 09:56:22;;;;;;;1.02;0.70;;;;;;;17.40;44.08;103338.66;5046042;28;20033;-48
2022/01/22 09:58:48;;;;;;;2.10;0.82;;;;;;;17.41;43.78;103331.47;5046728;28;20029;-51
2022/01/22 10:01:28;;;;;;;1.77;0.77;;;;;;;17.43;43.71;103334.94;5046485;28;20740;-51
2022/01/22 10:03:59;;;;;;;0.88;0.75;;;;;;;17.40;43.78;103335.97;5045723;28;20035;-51
2022/01/22 10:06:28;;;;;;;2.10;0.88;;;;;;;17.43;43.70;103346.53;5046384;28;20075;-50
2022/01/22 10:09:13;;;;;;;1.05;0.85;;;;;;;17.45;43.84;103349.97;5046012;28;20029;-51
2022/01/22 10:11:39;;;;;;;2.17;0.90;;;;;;;17.45;43.68;103347.28;5045977;28;20028;-50
2022/01/22 10:14:04;;;;;;;2.08;0.80;;;;;;;17.46;43.67;103350.88;5046436;28;20048;-52
2022/01/22 10:16:33;;;;;;;1.65;0.90;;;;;;;17.46;43.71;103346.34;5046275;28;20604;-50
2022/01/22 10:19:16;;;;;;;0.93;0.75;;;;;;;17.48;43.65;103340.88;5044647;28;20025;-50
2022/01/22 10:21:53;;;;;;;1.08;0.80;;;;;;;17.48;43.65;103344.41;5046131;28;20565;-48
2022/01/22 10:24:45;;;;;;;1.02;0.90;;;;;;;17.49;43.60;103343.44;5045865;28;20033;-50
2022/01/22 10:27:38;;;;;;;1.15;0.80;;;;;;;17.50;43.58;103338.97;5046077;28;20025;-52
2022/01/22 10:30:14;;;;;;;1.30;0.80;;;;;;;17.51;43.55;103343.38;5046002;28;20752;-52
2022/01/22 10:35:12;;;;;;;1.30;0.80;;;;;;;17.53;43.63;103338.72;5042805;28;20045;-51
2022/01/22 10:37:37;;;;;;;1.55;0.80;;;;;;;17.54;43.75;103339.59;5045339;28;20086;-51
2022/01/22 10:40:23;;;;;;;0.98;0.80;;;;;;;17.56;43.71;103332.31;5037588;28;20107;-49
2022/01/22 10:42:49;;;;;;;1.15;0.80;;;;;;;17.57;43.78;103334.03;5036879;28;20038;-49
2022/01/22 10:45:23;;;;;;;2.25;0.90;;;;;;;17.58;43.84;103331.22;5037874;28;20030;-51
2022/01/22 10:47:49;;;;;;;1.42;1.02;;;;;;;17.55;43.89;103330.59;5020920;28;20026;-53
2022/01/22 10:50:22;;;;;;;1.65;0.93;;;;;;;17.59;43.85;103326.72;5038454;28;20052;-53
2022/01/22 10:52:52;;;;;;;1.65;0.70;;;;;;;17.62;43.93;103331.88;5036421;28;20513;-50
2022/01/22 10:55:18;;;;;;;1.67;0.70;;;;;;;17.64;44.03;103338.91;5037201;28;20030;-51
2022/01/22 10:58:08;;;;;;;1.45;0.85;;;;;;;17.67;44.04;103337.81;5040239;28;20026;-51
2022/01/22 11:00:37;;;;;;;1.10;0.70;;;;;;;17.66;44.08;103342.34;5036196;28;20034;-53
2022/01/22 11:03:19;;;;;;;1.25;1.00;;;;;;;17.68;44.14;103339.56;5019043;28;20044;-50
2022/01/22 11:05:44;;;;;;;1.50;0.70;;;;;;;17.53;44.15;103317.22;5038611;28;20052;-49
2022/01/22 11:08:13;;;;;;;0.88;0.80;;;;;;;17.69;43.97;103347.53;5018342;28;20025;-52
2022/01/22 11:10:39;;;;;;;2.95;1.48;;;;;;;17.70;44.06;103343.00;5034317;28;20025;-54
2022/01/22 11:13:04;;;;;;;1.80;0.85;;;;;;;17.72;44.14;103333.88;5037001;28;20028;-53
2022/01/22 11:15:30;;;;;;;1.25;0.75;;;;;;;17.74;44.12;103336.50;5033917;28;20026;-52
2022/01/22 11:17:55;;;;;;;2.30;1.17;;;;;;;17.74;44.16;103342.72;5023277;28;20428;-54
2022/01/22 11:20:22;;;;;;;1.38;0.90;;;;;;;17.76;44.03;103345.34;5019394;28;20082;-51
2022/01/22 11:22:48;;;;;;;1.80;0.75;;;;;;;17.77;44.23;103338.97;5023785;28;20022;-52
2022/01/22 11:25:14;;;;;;;1.35;0.70;;;;;;;17.76;44.16;103325.66;5022254;28;20045;-53
2022/01/22 11:27:40;;;;;;;1.48;0.80;;;;;;;17.79;44.40;103326.28;5012809;28;20077;-54
2022/01/22 11:30:07;;;;;;;0.60;0.60;;;;;;;17.81;44.18;103331.56;5024936;28;20030;-53
2022/01/22 11:32:40;;;;;;;1.10;0.70;;;;;;;17.83;44.13;103332.31;5008516;28;20064;-49
2022/01/22 11:35:06;;;;;;;1.35;0.90;;;;;;;17.86;44.21;103337.50;5026930;28;20547;-51
2022/01/22 11:37:50;;;;;;;2.05;0.90;;;;;;;17.88;44.25;103335.56;5026958;28;20029;-52
2022/01/22 11:40:20;;;;;;;1.00;0.70;;;;;;;17.89;44.05;103331.94;5043552;28;20549;-54
2022/01/22 11:43:07;;;;;;;1.00;0.90;;;;;;;17.91;44.20;103329.97;5026648;28;20441;-49
2022/01/22 11:45:36;;;;;;;1.10;1.00;;;;;;;17.91;44.16;103313.84;5044767;28;20049;-51
2022/01/22 11:48:20;;;;;;;0.77;0.68;;;;;;;17.92;44.04;103318.25;5044393;28;20026;-49
2022/01/22 11:50:48;;;;;;;1.77;0.80;;;;;;;17.94;44.03;103319.00;5041851;28;20037;-50
2022/01/22 11:53:25;;;;;;;0.98;0.70;;;;;;;17.94;44.15;103319.88;5033326;28;20026;-51
2022/01/22 11:56:09;;;;;;;2.00;0.65;;;;;;;17.95;44.00;103312.66;5034274;28;20017;-51
2022/01/22 11:58:56;;;;;;;1.70;1.20;;;;;;;17.96;44.11;103326.00;5040697;28;20057;-50
2022/01/22 12:01:45;;;;;;;3.13;1.65;;;;;;;17.98;44.24;103320.53;5044296;28;20033;-52
2022/01/22 12:04:15;;;;;;;5.72;3.38;;;;;;;17.99;44.23;103311.47;5043913;28;20032;-50
2022/01/22 12:07:07;;;;;;;6.00;3.38;;;;;;;18.01;44.16;103314.94;5043980;28;20151;-51
2022/01/22 12:09:41;;;;;;;6.15;3.15;;;;;;;18.02;44.41;103318.50;5043801;28;20029;-50
2022/01/22 12:15:15;;;;;;;6.65;3.20;;;;;;;18.07;44.27;103330.69;5040431;28;20120;-52
2022/01/22 12:23:11;;;;;;;4.05;2.70;;;;;;;18.12;44.37;103314.19;5040036;28;20128;-53
2022/01/22 12:25:40;;;;;;;5.15;3.05;;;;;;;18.13;44.49;103321.31;5036436;28;20040;-50
2022/01/22 12:28:06;;;;;;;5.85;2.50;;;;;;;18.13;44.62;103321.31;5032611;28;20025;-54
2022/01/22 12:30:49;;;;;;;5.03;2.85;;;;;;;18.14;44.47;103334.69;5037915;28;20032;-49
2022/01/22 12:33:34;;;;;;;6.47;3.17;;;;;;;18.17;44.61;103338.97;5035798;28;20101;-53
2022/01/22 12:36:05;;;;;;;5.45;2.60;;;;;;;18.12;44.70;103324.97;5039388;28;20116;-54
2022/01/22 12:38:37;;;;;;;6.47;3.03;;;;;;;18.17;44.39;103326.38;5034125;28;20115;-50
2022/01/22 12:41:27;;;;;;;5.28;2.95;;;;;;;18.17;44.61;103328.22;5036089;28;20144;-54
2022/01/22 12:44:45;;;;;;;5.30;2.90;;;;;;;18.19;44.53;103329.84;5022765;28;20038;-51
2022/01/22 12:47:05;;;;;;;5.72;2.20;;;;;;;18.20;44.57;103325.31;5039312;28;20045;-53
2022/01/22 12:49:30;;;;;;;7.40;3.03;;;;;;;18.20;44.67;103328.88;5043371;28;20036;-53
2022/01/22 12:51:57;;;;;;;3.65;2.22;;;;;;;18.22;44.50;103326.94;5043108;28;20037;-52
2022/01/22 12:54:45;;;;;;;4.97;2.40;;;;;;;18.24;44.72;103330.38;5043156;28;20026;-53
2022/01/22 12:57:16;;;;;;;5.40;2.70;;;;;;;18.25;44.68;103336.63;5043691;28;20045;-51
2022/01/22 13:00:05;;;;;;;3.80;2.17;;;;;;;18.27;44.49;103334.72;5043313;28;20503;-51
2022/01/22 13:02:50;;;;;;;3.55;2.45;;;;;;;18.29;44.45;103337.28;5043162;28;20021;-52
2022/01/22 13:05:18;;;;;;;4.13;2.00;;;;;;;18.27;44.23;103334.72;5043399;28;20121;-52
2022/01/22 13:07:46;;;;;;;4.35;2.45;;;;;;;18.30;44.52;103339.84;5041883;28;20039;-48
2022/01/22 13:10:12;;;;;;;5.30;2.70;;;;;;;18.31;44.27;103349.69;5042432;28;20021;-48
2022/01/22 13:12:42;;;;;;;3.28;2.70;;;;;;;18.30;44.35;103342.56;5043099;28;20478;-51
2022/01/22 13:15:10;;;;;;;3.28;2.00;;;;;;;18.31;44.33;103344.31;5025467;28;20022;-52